sensor_id;sensor_type;location;lat;lon;timestamp;P1;durP1;ratioP1;P2;durP2;ratioP2
74616;SDS011;63123;50.906;4.198;2022-12-18T00:01:26;16.20;;;14.52;;
74616;SDS011;63123;50.906;4.198;2022-12-18T00:03:54;16.90;;;14.82;;
74616;SDS011;63123;50.906;4.198;2022-12-18T00:06:20;17.70;;;14.90;;
74616;SDS011;63123;50.906;4.198;2022-12-18T00:08:47;16.73;;;14.77;;
74616;SDS011;63123;50.906;4.198;2022-12-18T00:11:14;15.07;;;13.48;;
74616;SDS011;63123;50.906;4.198;2022-12-18T00:13:41;16.33;;;14.63;;
74616;SDS011;63123;50.906;4.198;2022-12-18T00:16:12;15.50;;;13.70;;
74616;SDS011;63123;50.906;4.198;2022-12-18T00:18:50;16.67;;;14.15;;
74616;SDS011;63123;50.906;4.198;2022-12-18T00:21:18;17.70;;;15.07;;
74616;SDS011;63123;50.906;4.198;2022-12-18T00:23:45;15.90;;;13.85;;
74616;SDS011;63123;50.906;4.198;2022-12-18T00:26:15;16.30;;;13.65;;
74616;SDS011;63123;50.906;4.198;2022-12-18T00:28:43;15.90;;;14.30;;
74616;SDS011;63123;50.906;4.198;2022-12-18T00:31:10;16.25;;;13.82;;
74616;SDS011;63123;50.906;4.198;2022-12-18T00:33:37;16.05;;;13.55;;
74616;SDS011;63123;50.906;4.198;2022-12-18T00:36:07;17.52;;;14.48;;
74616;SDS011;63123;50.906;4.198;2022-12-18T00:38:38;15.68;;;13.82;;
74616;SDS011;63123;50.906;4.198;2022-12-18T00:41:06;14.52;;;13.05;;
74616;SDS011;63123;50.906;4.198;2022-12-18T00:43:32;16.13;;;14.43;;
74616;SDS011;63123;50.906;4.198;2022-12-18T00:45:59;15.73;;;14.23;;
74616;SDS011;63123;50.906;4.198;2022-12-18T00:48:24;17.40;;;13.43;;
74616;SDS011;63123;50.906;4.198;2022-12-18T00:50:50;16.23;;;13.73;;
74616;SDS011;63123;50.906;4.198;2022-12-18T00:53:16;14.25;;;12.68;;
74616;SDS011;63123;50.906;4.198;2022-12-18T00:55:42;15.77;;;12.70;;
74616;SDS011;63123;50.906;4.198;2022-12-18T00:58:08;14.93;;;13.18;;
74616;SDS011;63123;50.906;4.198;2022-12-18T01:00:35;15.07;;;13.10;;
74616;SDS011;63123;50.906;4.198;2022-12-18T01:03:01;13.65;;;12.30;;
74616;SDS011;63123;50.906;4.198;2022-12-18T01:05:26;14.85;;;13.00;;
74616;SDS011;63123;50.906;4.198;2022-12-18T01:07:52;14.57;;;12.95;;
74616;SDS011;63123;50.906;4.198;2022-12-18T01:10:18;14.18;;;12.77;;
74616;SDS011;63123;50.906;4.198;2022-12-18T01:12:44;14.80;;;12.52;;
74616;SDS011;63123;50.906;4.198;2022-12-18T01:15:10;14.77;;;12.93;;
74616;SDS011;63123;50.906;4.198;2022-12-18T01:17:37;12.52;;;11.23;;
74616;SDS011;63123;50.906;4.198;2022-12-18T01:20:03;14.60;;;12.25;;
74616;SDS011;63123;50.906;4.198;2022-12-18T01:22:29;15.40;;;12.93;;
74616;SDS011;63123;50.906;4.198;2022-12-18T01:24:55;14.23;;;12.73;;
74616;SDS011;63123;50.906;4.198;2022-12-18T01:27:20;15.55;;;12.50;;
74616;SDS011;63123;50.906;4.198;2022-12-18T01:29:46;12.82;;;11.48;;
74616;SDS011;63123;50.906;4.198;2022-12-18T01:32:11;13.52;;;12.13;;
74616;SDS011;63123;50.906;4.198;2022-12-18T01:34:37;13.50;;;11.80;;
74616;SDS011;63123;50.906;4.198;2022-12-18T01:37:03;14.65;;;11.55;;
74616;SDS011;63123;50.906;4.198;2022-12-18T01:39:29;12.75;;;11.45;;
74616;SDS011;63123;50.906;4.198;2022-12-18T01:41:56;14.60;;;12.13;;
74616;SDS011;63123;50.906;4.198;2022-12-18T01:50:13;14.02;;;11.77;;
74616;SDS011;63123;50.906;4.198;2022-12-18T01:52:42;13.35;;;11.98;;
74616;SDS011;63123;50.906;4.198;2022-12-18T01:55:10;11.40;;;10.40;;
74616;SDS011;63123;50.906;4.198;2022-12-18T01:57:37;12.82;;;11.52;;
74616;SDS011;63123;50.906;4.198;2022-12-18T02:00:07;12.77;;;11.48;;
74616;SDS011;63123;50.906;4.198;2022-12-18T02:02:44;13.10;;;11.75;;
74616;SDS011;63123;50.906;4.198;2022-12-18T02:05:11;12.75;;;11.50;;
74616;SDS011;63123;50.906;4.198;2022-12-18T02:10:27;12.03;;;10.50;;
74616;SDS011;63123;50.906;4.198;2022-12-18T02:13:01;13.60;;;11.65;;
74616;SDS011;63123;50.906;4.198;2022-12-18T02:15:39;11.57;;;10.32;;
74616;SDS011;63123;50.906;4.198;2022-12-18T02:18:17;11.68;;;10.63;;
74616;SDS011;63123;50.906;4.198;2022-12-18T02:23:52;14.10;;;12.50;;
74616;SDS011;63123;50.906;4.198;2022-12-18T02:26:50;10.90;;;9.82;;
74616;SDS011;63123;50.906;4.198;2022-12-18T02:29:33;12.27;;;11.02;;
74616;SDS011;63123;50.906;4.198;2022-12-18T02:32:05;11.32;;;10.10;;
74616;SDS011;63123;50.906;4.198;2022-12-18T02:34:36;12.73;;;11.05;;
74616;SDS011;63123;50.906;4.198;2022-12-18T02:37:05;13.43;;;12.13;;
74616;SDS011;63123;50.906;4.198;2022-12-18T02:39:34;12.75;;;11.45;;
74616;SDS011;63123;50.906;4.198;2022-12-18T02:42:02;12.77;;;11.55;;
74616;SDS011;63123;50.906;4.198;2022-12-18T02:44:32;11.88;;;10.57;;
74616;SDS011;63123;50.906;4.198;2022-12-18T02:46:59;11.23;;;10.23;;
74616;SDS011;63123;50.906;4.198;2022-12-18T02:49:32;11.55;;;10.45;;
74616;SDS011;63123;50.906;4.198;2022-12-18T02:55:00;12.85;;;10.75;;
74616;SDS011;63123;50.906;4.198;2022-12-18T02:57:53;11.07;;;9.85;;
74616;SDS011;63123;50.906;4.198;2022-12-18T03:03:15;11.48;;;10.27;;
74616;SDS011;63123;50.906;4.198;2022-12-18T03:06:00;11.02;;;9.90;;
74616;SDS011;63123;50.906;4.198;2022-12-18T03:08:31;11.15;;;10.05;;
74616;SDS011;63123;50.906;4.198;2022-12-18T03:11:04;11.02;;;9.95;;
74616;SDS011;63123;50.906;4.198;2022-12-18T03:13:39;10.65;;;9.65;;
74616;SDS011;63123;50.906;4.198;2022-12-18T03:16:12;11.35;;;10.15;;
74616;SDS011;63123;50.906;4.198;2022-12-18T03:18:47;12.38;;;10.80;;
74616;SDS011;63123;50.906;4.198;2022-12-18T03:21:21;10.98;;;9.88;;
74616;SDS011;63123;50.906;4.198;2022-12-18T03:23:52;11.18;;;10.10;;
74616;SDS011;63123;50.906;4.198;2022-12-18T03:26:19;10.45;;;9.45;;
74616;SDS011;63123;50.906;4.198;2022-12-18T03:28:59;10.70;;;9.70;;
74616;SDS011;63123;50.906;4.198;2022-12-18T03:31:29;10.50;;;9.48;;
74616;SDS011;63123;50.906;4.198;2022-12-18T03:34:01;10.02;;;9.13;;
74616;SDS011;63123;50.906;4.198;2022-12-18T03:36:31;10.27;;;9.32;;
74616;SDS011;63123;50.906;4.198;2022-12-18T03:38:57;9.95;;;9.02;;
74616;SDS011;63123;50.906;4.198;2022-12-18T03:46:38;10.07;;;9.18;;
74616;SDS011;63123;50.906;4.198;2022-12-18T03:51:55;9.68;;;8.73;;
74616;SDS011;63123;50.906;4.198;2022-12-18T03:54:30;8.98;;;8.25;;
74616;SDS011;63123;50.906;4.198;2022-12-18T03:56:59;9.85;;;8.95;;
74616;SDS011;63123;50.906;4.198;2022-12-18T03:59:30;10.35;;;9.35;;
74616;SDS011;63123;50.906;4.198;2022-12-18T04:01:57;10.32;;;9.43;;
74616;SDS011;63123;50.906;4.198;2022-12-18T04:04:26;9.00;;;8.15;;
74616;SDS011;63123;50.906;4.198;2022-12-18T04:06:53;10.15;;;9.18;;
74616;SDS011;63123;50.906;4.198;2022-12-18T04:09:19;9.40;;;8.50;;
74616;SDS011;63123;50.906;4.198;2022-12-18T04:11:46;9.75;;;8.85;;
74616;SDS011;63123;50.906;4.198;2022-12-18T04:14:12;10.40;;;9.45;;
74616;SDS011;63123;50.906;4.198;2022-12-18T04:16:38;9.55;;;8.63;;
74616;SDS011;63123;50.906;4.198;2022-12-18T04:19:04;9.10;;;8.20;;
74616;SDS011;63123;50.906;4.198;2022-12-18T04:21:29;8.68;;;7.88;;
74616;SDS011;63123;50.906;4.198;2022-12-18T04:23:55;9.25;;;8.45;;
74616;SDS011;63123;50.906;4.198;2022-12-18T04:26:21;10.25;;;9.25;;
74616;SDS011;63123;50.906;4.198;2022-12-18T04:28:46;9.60;;;8.70;;
74616;SDS011;63123;50.906;4.198;2022-12-18T04:31:12;9.63;;;8.73;;
74616;SDS011;63123;50.906;4.198;2022-12-18T04:33:38;9.25;;;8.45;;
74616;SDS011;63123;50.906;4.198;2022-12-18T04:36:03;9.63;;;8.73;;
74616;SDS011;63123;50.906;4.198;2022-12-18T04:38:29;9.13;;;8.23;;
74616;SDS011;63123;50.906;4.198;2022-12-18T04:40:55;9.15;;;8.25;;
74616;SDS011;63123;50.906;4.198;2022-12-18T04:43:21;8.30;;;7.50;;
74616;SDS011;63123;50.906;4.198;2022-12-18T04:45:46;8.65;;;7.90;;
74616;SDS011;63123;50.906;4.198;2022-12-18T04:48:12;9.27;;;8.38;;
74616;SDS011;63123;50.906;4.198;2022-12-18T04:50:38;9.02;;;7.55;;
74616;SDS011;63123;50.906;4.198;2022-12-18T04:53:03;9.82;;;8.93;;
74616;SDS011;63123;50.906;4.198;2022-12-18T04:55:29;8.95;;;8.15;;
74616;SDS011;63123;50.906;4.198;2022-12-18T04:57:55;8.88;;;8.07;;
74616;SDS011;63123;50.906;4.198;2022-12-18T05:00:21;8.35;;;7.65;;
74616;SDS011;63123;50.906;4.198;2022-12-18T05:02:46;8.70;;;8.00;;
74616;SDS011;63123;50.906;4.198;2022-12-18T05:05:12;8.75;;;8.02;;
74616;SDS011;63123;50.906;4.198;2022-12-18T05:07:38;8.90;;;8.10;;
74616;SDS011;63123;50.906;4.198;2022-12-18T05:10:04;8.60;;;7.80;;
74616;SDS011;63123;50.906;4.198;2022-12-18T05:12:31;8.32;;;7.63;;
74616;SDS011;63123;50.906;4.198;2022-12-18T05:14:57;7.93;;;7.22;;
74616;SDS011;63123;50.906;4.198;2022-12-18T05:17:23;8.70;;;7.82;;
74616;SDS011;63123;50.906;4.198;2022-12-18T05:19:48;8.65;;;7.70;;
74616;SDS011;63123;50.906;4.198;2022-12-18T05:22:14;8.80;;;7.90;;
74616;SDS011;63123;50.906;4.198;2022-12-18T05:24:39;8.05;;;7.25;;
74616;SDS011;63123;50.906;4.198;2022-12-18T05:27:05;7.85;;;7.05;;
74616;SDS011;63123;50.906;4.198;2022-12-18T05:29:31;7.90;;;7.20;;
74616;SDS011;63123;50.906;4.198;2022-12-18T05:31:56;8.20;;;7.40;;
74616;SDS011;63123;50.906;4.198;2022-12-18T05:34:22;7.53;;;6.90;;
74616;SDS011;63123;50.906;4.198;2022-12-18T05:36:48;7.80;;;7.10;;
74616;SDS011;63123;50.906;4.198;2022-12-18T05:39:13;8.18;;;7.38;;
74616;SDS011;63123;50.906;4.198;2022-12-18T05:41:39;8.55;;;7.72;;
74616;SDS011;63123;50.906;4.198;2022-12-18T05:44:04;7.82;;;7.13;;
74616;SDS011;63123;50.906;4.198;2022-12-18T05:46:30;8.18;;;7.45;;
74616;SDS011;63123;50.906;4.198;2022-12-18T05:48:58;7.28;;;6.57;;
74616;SDS011;63123;50.906;4.198;2022-12-18T05:51:26;7.43;;;6.72;;
74616;SDS011;63123;50.906;4.198;2022-12-18T05:53:51;8.23;;;7.47;;
74616;SDS011;63123;50.906;4.198;2022-12-18T05:56:18;7.72;;;7.03;;
74616;SDS011;63123;50.906;4.198;2022-12-18T05:58:45;7.10;;;6.50;;
74616;SDS011;63123;50.906;4.198;2022-12-18T06:01:15;7.88;;;7.18;;
74616;SDS011;63123;50.906;4.198;2022-12-18T06:03:43;6.65;;;6.05;;
74616;SDS011;63123;50.906;4.198;2022-12-18T06:06:22;7.30;;;6.70;;
74616;SDS011;63123;50.906;4.198;2022-12-18T06:08:49;7.25;;;6.65;;
74616;SDS011;63123;50.906;4.198;2022-12-18T06:11:17;6.95;;;6.43;;
74616;SDS011;63123;50.906;4.198;2022-12-18T06:13:45;7.20;;;6.60;;
74616;SDS011;63123;50.906;4.198;2022-12-18T06:16:11;7.60;;;6.82;;
74616;SDS011;63123;50.906;4.198;2022-12-18T06:18:37;7.70;;;7.00;;
74616;SDS011;63123;50.906;4.198;2022-12-18T06:21:02;7.53;;;6.82;;
74616;SDS011;63123;50.906;4.198;2022-12-18T06:23:28;7.47;;;6.78;;
74616;SDS011;63123;50.906;4.198;2022-12-18T06:25:54;7.43;;;6.72;;
74616;SDS011;63123;50.906;4.198;2022-12-18T06:28:20;6.80;;;6.20;;
74616;SDS011;63123;50.906;4.198;2022-12-18T06:30:46;7.32;;;6.63;;
74616;SDS011;63123;50.906;4.198;2022-12-18T06:33:13;6.75;;;6.13;;
74616;SDS011;63123;50.906;4.198;2022-12-18T06:35:39;7.38;;;6.68;;
74616;SDS011;63123;50.906;4.198;2022-12-18T06:38:05;7.05;;;6.50;;
74616;SDS011;63123;50.906;4.198;2022-12-18T06:40:31;6.85;;;6.25;;
74616;SDS011;63123;50.906;4.198;2022-12-18T06:42:57;7.28;;;6.68;;
74616;SDS011;63123;50.906;4.198;2022-12-18T06:45:23;6.55;;;6.03;;
74616;SDS011;63123;50.906;4.198;2022-12-18T06:47:49;6.50;;;5.90;;
74616;SDS011;63123;50.906;4.198;2022-12-18T06:50:14;6.53;;;5.93;;
74616;SDS011;63123;50.906;4.198;2022-12-18T06:52:40;6.72;;;6.13;;
74616;SDS011;63123;50.906;4.198;2022-12-18T06:55:08;6.45;;;5.95;;
74616;SDS011;63123;50.906;4.198;2022-12-18T06:57:35;6.78;;;6.18;;
74616;SDS011;63123;50.906;4.198;2022-12-18T07:00:02;6.40;;;5.90;;
74616;SDS011;63123;50.906;4.198;2022-12-18T07:02:29;6.18;;;5.57;;
74616;SDS011;63123;50.906;4.198;2022-12-18T07:04:54;6.20;;;5.60;;
74616;SDS011;63123;50.906;4.198;2022-12-18T07:07:20;6.05;;;5.53;;
74616;SDS011;63123;50.906;4.198;2022-12-18T07:09:46;6.53;;;5.97;;
74616;SDS011;63123;50.906;4.198;2022-12-18T07:12:11;6.00;;;5.50;;
74616;SDS011;63123;50.906;4.198;2022-12-18T07:14:37;6.67;;;6.17;;
74616;SDS011;63123;50.906;4.198;2022-12-18T07:17:02;5.85;;;5.32;;
74616;SDS011;63123;50.906;4.198;2022-12-18T07:19:28;6.78;;;6.18;;
74616;SDS011;63123;50.906;4.198;2022-12-18T07:21:54;6.00;;;5.50;;
74616;SDS011;63123;50.906;4.198;2022-12-18T07:24:20;5.95;;;5.45;;
74616;SDS011;63123;50.906;4.198;2022-12-18T07:26:45;6.95;;;6.25;;
74616;SDS011;63123;50.906;4.198;2022-12-18T07:29:11;6.32;;;5.80;;
74616;SDS011;63123;50.906;4.198;2022-12-18T07:31:37;6.00;;;5.45;;
74616;SDS011;63123;50.906;4.198;2022-12-18T07:34:02;6.13;;;5.63;;
74616;SDS011;63123;50.906;4.198;2022-12-18T07:36:28;5.72;;;5.22;;
74616;SDS011;63123;50.906;4.198;2022-12-18T07:38:54;5.38;;;4.90;;
74616;SDS011;63123;50.906;4.198;2022-12-18T07:41:20;5.63;;;5.13;;
74616;SDS011;63123;50.906;4.198;2022-12-18T07:43:46;6.28;;;5.68;;
74616;SDS011;63123;50.906;4.198;2022-12-18T07:46:12;6.15;;;5.50;;
74616;SDS011;63123;50.906;4.198;2022-12-18T07:48:39;6.38;;;5.78;;
74616;SDS011;63123;50.906;4.198;2022-12-18T07:51:06;5.75;;;5.25;;
74616;SDS011;63123;50.906;4.198;2022-12-18T07:53:32;5.75;;;5.25;;
74616;SDS011;63123;50.906;4.198;2022-12-18T07:56:01;6.43;;;5.78;;
74616;SDS011;63123;50.906;4.198;2022-12-18T07:58:29;5.80;;;5.30;;
74616;SDS011;63123;50.906;4.198;2022-12-18T08:01:09;5.13;;;4.70;;
74616;SDS011;63123;50.906;4.198;2022-12-18T08:03:36;5.68;;;5.28;;
74616;SDS011;63123;50.906;4.198;2022-12-18T08:06:02;5.90;;;5.43;;
74616;SDS011;63123;50.906;4.198;2022-12-18T08:08:29;6.18;;;5.68;;
74616;SDS011;63123;50.906;4.198;2022-12-18T08:10:55;5.93;;;5.43;;
74616;SDS011;63123;50.906;4.198;2022-12-18T08:13:22;5.75;;;5.22;;
74616;SDS011;63123;50.906;4.198;2022-12-18T08:16:01;5.40;;;4.90;;
74616;SDS011;63123;50.906;4.198;2022-12-18T08:18:28;5.80;;;5.30;;
74616;SDS011;63123;50.906;4.198;2022-12-18T08:20:54;5.65;;;5.15;;
74616;SDS011;63123;50.906;4.198;2022-12-18T08:23:20;6.57;;;6.07;;
74616;SDS011;63123;50.906;4.198;2022-12-18T08:25:46;6.18;;;5.78;;
74616;SDS011;63123;50.906;4.198;2022-12-18T08:28:11;5.57;;;5.07;;
74616;SDS011;63123;50.906;4.198;2022-12-18T08:30:37;6.28;;;5.78;;
74616;SDS011;63123;50.906;4.198;2022-12-18T08:33:03;5.40;;;5.00;;
74616;SDS011;63123;50.906;4.198;2022-12-18T08:35:29;5.95;;;5.47;;
74616;SDS011;63123;50.906;4.198;2022-12-18T08:37:54;5.40;;;5.00;;
74616;SDS011;63123;50.906;4.198;2022-12-18T08:40:20;5.63;;;5.13;;
74616;SDS011;63123;50.906;4.198;2022-12-18T08:42:45;6.15;;;5.55;;
74616;SDS011;63123;50.906;4.198;2022-12-18T08:45:33;5.75;;;5.25;;
74616;SDS011;63123;50.906;4.198;2022-12-18T08:47:59;6.20;;;5.60;;
74616;SDS011;63123;50.906;4.198;2022-12-18T08:50:24;5.18;;;4.78;;
74616;SDS011;63123;50.906;4.198;2022-12-18T08:52:50;6.25;;;5.65;;
74616;SDS011;63123;50.906;4.198;2022-12-18T08:55:16;5.07;;;4.68;;
74616;SDS011;63123;50.906;4.198;2022-12-18T08:57:42;5.50;;;5.07;;
74616;SDS011;63123;50.906;4.198;2022-12-18T09:00:07;5.65;;;5.18;;
74616;SDS011;63123;50.906;4.198;2022-12-18T09:02:33;5.18;;;4.78;;
74616;SDS011;63123;50.906;4.198;2022-12-18T09:04:59;5.03;;;4.63;;
74616;SDS011;63123;50.906;4.198;2022-12-18T09:07:25;5.22;;;4.72;;
74616;SDS011;63123;50.906;4.198;2022-12-18T09:09:50;5.15;;;4.68;;
74616;SDS011;63123;50.906;4.198;2022-12-18T09:12:16;4.90;;;4.50;;
74616;SDS011;63123;50.906;4.198;2022-12-18T09:14:42;4.97;;;4.57;;
74616;SDS011;63123;50.906;4.198;2022-12-18T09:17:07;5.35;;;4.85;;
74616;SDS011;63123;50.906;4.198;2022-12-18T09:19:33;4.90;;;4.50;;
74616;SDS011;63123;50.906;4.198;2022-12-18T09:21:58;5.05;;;4.60;;
74616;SDS011;63123;50.906;4.198;2022-12-18T09:24:24;4.95;;;4.55;;
74616;SDS011;63123;50.906;4.198;2022-12-18T09:26:52;5.28;;;4.88;;
74616;SDS011;63123;50.906;4.198;2022-12-18T09:29:20;4.97;;;4.57;;
74616;SDS011;63123;50.906;4.198;2022-12-18T09:31:46;5.60;;;5.20;;
74616;SDS011;63123;50.906;4.198;2022-12-18T09:34:12;5.70;;;5.20;;
74616;SDS011;63123;50.906;4.198;2022-12-18T09:36:38;5.32;;;4.82;;
74616;SDS011;63123;50.906;4.198;2022-12-18T09:39:04;5.00;;;4.50;;
74616;SDS011;63123;50.906;4.198;2022-12-18T09:41:43;4.88;;;4.47;;
74616;SDS011;63123;50.906;4.198;2022-12-18T09:49:42;5.00;;;4.57;;
74616;SDS011;63123;50.906;4.198;2022-12-18T09:54:49;5.70;;;5.30;;
74616;SDS011;63123;50.906;4.198;2022-12-18T09:57:19;5.20;;;4.80;;
74616;SDS011;63123;50.906;4.198;2022-12-18T09:59:51;5.88;;;5.38;;
74616;SDS011;63123;50.906;4.198;2022-12-18T10:02:21;4.82;;;4.43;;
74616;SDS011;63123;50.906;4.198;2022-12-18T10:04:59;5.32;;;4.82;;
74616;SDS011;63123;50.906;4.198;2022-12-18T10:07:31;5.07;;;4.68;;
74616;SDS011;63123;50.906;4.198;2022-12-18T10:12:49;4.43;;;4.05;;
74616;SDS011;63123;50.906;4.198;2022-12-18T10:15:36;4.72;;;4.32;;
74616;SDS011;63123;50.906;4.198;2022-12-18T10:21:26;4.57;;;4.20;;
74616;SDS011;63123;50.906;4.198;2022-12-18T10:26:52;5.28;;;4.78;;
74616;SDS011;63123;50.906;4.198;2022-12-18T10:29:21;5.00;;;4.53;;
74616;SDS011;63123;50.906;4.198;2022-12-18T10:31:47;4.95;;;4.55;;
74616;SDS011;63123;50.906;4.198;2022-12-18T10:34:13;4.65;;;4.30;;
74616;SDS011;63123;50.906;4.198;2022-12-18T10:36:38;5.47;;;5.07;;
74616;SDS011;63123;50.906;4.198;2022-12-18T10:39:14;4.95;;;4.55;;
74616;SDS011;63123;50.906;4.198;2022-12-18T10:41:47;5.18;;;4.78;;
74616;SDS011;63123;50.906;4.198;2022-12-18T10:44:17;5.20;;;4.75;;
74616;SDS011;63123;50.906;4.198;2022-12-18T10:46:50;4.65;;;4.25;;
74616;SDS011;63123;50.906;4.198;2022-12-18T10:49:25;5.05;;;4.65;;
74616;SDS011;63123;50.906;4.198;2022-12-18T10:54:37;4.05;;;3.75;;
74616;SDS011;63123;50.906;4.198;2022-12-18T10:57:17;5.00;;;4.60;;
74616;SDS011;63123;50.906;4.198;2022-12-18T10:59:56;5.57;;;5.07;;
74616;SDS011;63123;50.906;4.198;2022-12-18T11:02:36;5.18;;;4.78;;
74616;SDS011;63123;50.906;4.198;2022-12-18T11:05:04;5.20;;;4.78;;
74616;SDS011;63123;50.906;4.198;2022-12-18T11:08:11;4.80;;;4.43;;
74616;SDS011;63123;50.906;4.198;2022-12-18T11:10:46;4.90;;;4.50;;
74616;SDS011;63123;50.906;4.198;2022-12-18T11:13:15;5.05;;;4.65;;
74616;SDS011;63123;50.906;4.198;2022-12-18T11:15:46;4.57;;;4.18;;
74616;SDS011;63123;50.906;4.198;2022-12-18T11:21:09;5.57;;;5.07;;
74616;SDS011;63123;50.906;4.198;2022-12-18T11:23:37;5.15;;;4.75;;
74616;SDS011;63123;50.906;4.198;2022-12-18T11:26:15;4.93;;;4.45;;
74616;SDS011;63123;50.906;4.198;2022-12-18T11:28:43;4.57;;;4.20;;
74616;SDS011;63123;50.906;4.198;2022-12-18T11:33:41;4.90;;;4.50;;
74616;SDS011;63123;50.906;4.198;2022-12-18T11:36:09;4.72;;;4.32;;
74616;SDS011;63123;50.906;4.198;2022-12-18T11:38:36;5.18;;;4.68;;
74616;SDS011;63123;50.906;4.198;2022-12-18T11:41:24;4.78;;;4.38;;
74616;SDS011;63123;50.906;4.198;2022-12-18T11:44:27;4.72;;;4.32;;
74616;SDS011;63123;50.906;4.198;2022-12-18T11:47:03;5.30;;;4.75;;
74616;SDS011;63123;50.906;4.198;2022-12-18T11:49:35;4.82;;;4.10;;
74616;SDS011;63123;50.906;4.198;2022-12-18T11:54:34;4.90;;;4.50;;
74616;SDS011;63123;50.906;4.198;2022-12-18T12:01:57;5.35;;;4.95;;
74616;SDS011;63123;50.906;4.198;2022-12-18T12:04:48;5.15;;;4.75;;
74616;SDS011;63123;50.906;4.198;2022-12-18T12:10:18;4.90;;;4.47;;
74616;SDS011;63123;50.906;4.198;2022-12-18T12:13:07;5.35;;;4.85;;
74616;SDS011;63123;50.906;4.198;2022-12-18T12:15:47;5.85;;;5.35;;
74616;SDS011;63123;50.906;4.198;2022-12-18T12:18:43;5.63;;;5.13;;
74616;SDS011;63123;50.906;4.198;2022-12-18T12:27:01;4.97;;;4.57;;
74616;SDS011;63123;50.906;4.198;2022-12-18T12:37:22;6.03;;;5.43;;
74616;SDS011;63123;50.906;4.198;2022-12-18T12:39:54;5.32;;;4.82;;
74616;SDS011;63123;50.906;4.198;2022-12-18T12:42:24;5.35;;;4.93;;
74616;SDS011;63123;50.906;4.198;2022-12-18T12:45:44;5.68;;;5.25;;
74616;SDS011;63123;50.906;4.198;2022-12-18T12:48:19;5.22;;;4.82;;
74616;SDS011;63123;50.906;4.198;2022-12-18T12:50:48;5.15;;;4.70;;
74616;SDS011;63123;50.906;4.198;2022-12-18T12:53:21;5.65;;;5.10;;
74616;SDS011;63123;50.906;4.198;2022-12-18T12:55:51;5.53;;;5.03;;
74616;SDS011;63123;50.906;4.198;2022-12-18T13:01:00;5.93;;;5.43;;
74616;SDS011;63123;50.906;4.198;2022-12-18T13:03:41;4.78;;;4.38;;
74616;SDS011;63123;50.906;4.198;2022-12-18T13:09:02;5.18;;;4.68;;
74616;SDS011;63123;50.906;4.198;2022-12-18T13:11:41;5.63;;;5.13;;
74616;SDS011;63123;50.906;4.198;2022-12-18T13:14:34;5.40;;;4.95;;
74616;SDS011;63123;50.906;4.198;2022-12-18T13:19:44;5.83;;;5.27;;
74616;SDS011;63123;50.906;4.198;2022-12-18T13:22:23;5.30;;;4.80;;
74616;SDS011;63123;50.906;4.198;2022-12-18T13:24:53;5.80;;;5.22;;
74616;SDS011;63123;50.906;4.198;2022-12-18T13:31:09;5.90;;;5.35;;
74616;SDS011;63123;50.906;4.198;2022-12-18T13:43:19;6.25;;;5.75;;
74616;SDS011;63123;50.906;4.198;2022-12-18T13:45:49;6.50;;;5.90;;
74616;SDS011;63123;50.906;4.198;2022-12-18T13:48:49;5.72;;;5.22;;
74616;SDS011;63123;50.906;4.198;2022-12-18T13:51:24;5.75;;;5.25;;
74616;SDS011;63123;50.906;4.198;2022-12-18T13:53:52;5.95;;;5.45;;
74616;SDS011;63123;50.906;4.198;2022-12-18T13:56:22;5.97;;;5.25;;
74616;SDS011;63123;50.906;4.198;2022-12-18T13:59:03;6.07;;;5.57;;
74616;SDS011;63123;50.906;4.198;2022-12-18T14:01:53;6.30;;;5.72;;
74616;SDS011;63123;50.906;4.198;2022-12-18T14:04:21;5.72;;;5.22;;
74616;SDS011;63123;50.906;4.198;2022-12-18T14:06:47;6.78;;;6.18;;
74616;SDS011;63123;50.906;4.198;2022-12-18T14:09:17;6.38;;;5.78;;
74616;SDS011;63123;50.906;4.198;2022-12-18T14:11:49;7.28;;;6.68;;
74616;SDS011;63123;50.906;4.198;2022-12-18T14:14:16;6.47;;;5.97;;
74616;SDS011;63123;50.906;4.198;2022-12-18T14:16:42;5.93;;;5.32;;
74616;SDS011;63123;50.906;4.198;2022-12-18T14:19:15;6.53;;;5.93;;
74616;SDS011;63123;50.906;4.198;2022-12-18T14:21:48;6.10;;;5.50;;
74616;SDS011;63123;50.906;4.198;2022-12-18T14:24:16;6.43;;;5.93;;
74616;SDS011;63123;50.906;4.198;2022-12-18T14:26:43;7.03;;;6.40;;
74616;SDS011;63123;50.906;4.198;2022-12-18T14:32:10;6.47;;;5.90;;
74616;SDS011;63123;50.906;4.198;2022-12-18T14:34:38;6.63;;;6.03;;
74616;SDS011;63123;50.906;4.198;2022-12-18T14:37:04;7.38;;;6.78;;
74616;SDS011;63123;50.906;4.198;2022-12-18T14:39:34;7.20;;;6.60;;
74616;SDS011;63123;50.906;4.198;2022-12-18T14:41:59;8.07;;;7.30;;
74616;SDS011;63123;50.906;4.198;2022-12-18T14:44:25;6.45;;;5.95;;
74616;SDS011;63123;50.906;4.198;2022-12-18T14:46:51;7.35;;;6.72;;
74616;SDS011;63123;50.906;4.198;2022-12-18T14:49:30;6.28;;;5.68;;
74616;SDS011;63123;50.906;4.198;2022-12-18T14:51:57;6.80;;;6.20;;
74616;SDS011;63123;50.906;4.198;2022-12-18T14:54:25;6.88;;;6.28;;
74616;SDS011;63123;50.906;4.198;2022-12-18T14:56:55;6.43;;;5.82;;
74616;SDS011;63123;50.906;4.198;2022-12-18T14:59:28;7.25;;;6.63;;
74616;SDS011;63123;50.906;4.198;2022-12-18T15:04:47;8.20;;;7.50;;
74616;SDS011;63123;50.906;4.198;2022-12-18T15:10:00;6.85;;;6.25;;
74616;SDS011;63123;50.906;4.198;2022-12-18T15:12:37;7.40;;;6.72;;
74616;SDS011;63123;50.906;4.198;2022-12-18T15:15:43;7.00;;;6.40;;
74616;SDS011;63123;50.906;4.198;2022-12-18T15:18:04;6.72;;;6.10;;
74616;SDS011;63123;50.906;4.198;2022-12-18T15:20:31;7.32;;;6.63;;
74616;SDS011;63123;50.906;4.198;2022-12-18T15:23:04;7.30;;;6.60;;
74616;SDS011;63123;50.906;4.198;2022-12-18T15:25:36;7.45;;;6.85;;
74616;SDS011;63123;50.906;4.198;2022-12-18T15:28:03;8.02;;;7.30;;
74616;SDS011;63123;50.906;4.198;2022-12-18T15:30:40;7.95;;;7.25;;
74616;SDS011;63123;50.906;4.198;2022-12-18T15:36:15;7.50;;;6.80;;
74616;SDS011;63123;50.906;4.198;2022-12-18T15:38:46;7.00;;;6.38;;
74616;SDS011;63123;50.906;4.198;2022-12-18T15:41:18;8.07;;;7.35;;
74616;SDS011;63123;50.906;4.198;2022-12-18T15:43:46;6.85;;;6.25;;
74616;SDS011;63123;50.906;4.198;2022-12-18T15:46:14;8.30;;;7.53;;
74616;SDS011;63123;50.906;4.198;2022-12-18T15:48:42;7.50;;;6.80;;
74616;SDS011;63123;50.906;4.198;2022-12-18T15:53:54;7.75;;;7.05;;
74616;SDS011;63123;50.906;4.198;2022-12-18T15:56:21;7.90;;;7.20;;
74616;SDS011;63123;50.906;4.198;2022-12-18T15:59:10;6.97;;;6.28;;
74616;SDS011;63123;50.906;4.198;2022-12-18T16:01:38;7.10;;;6.50;;
74616;SDS011;63123;50.906;4.198;2022-12-18T16:04:06;7.43;;;6.68;;
74616;SDS011;63123;50.906;4.198;2022-12-18T16:06:31;7.53;;;6.82;;
74616;SDS011;63123;50.906;4.198;2022-12-18T16:08:57;7.22;;;6.63;;
74616;SDS011;63123;50.906;4.198;2022-12-18T16:11:26;7.50;;;6.80;;
74616;SDS011;63123;50.906;4.198;2022-12-18T16:14:10;7.35;;;6.65;;
74616;SDS011;63123;50.906;4.198;2022-12-18T16:16:49;8.02;;;7.32;;
74616;SDS011;63123;50.906;4.198;2022-12-18T16:19:16;7.13;;;6.43;;
74616;SDS011;63123;50.906;4.198;2022-12-18T16:21:43;7.05;;;6.43;;
74616;SDS011;63123;50.906;4.198;2022-12-18T16:24:15;7.05;;;6.45;;
74616;SDS011;63123;50.906;4.198;2022-12-18T16:26:43;7.60;;;6.88;;
74616;SDS011;63123;50.906;4.198;2022-12-18T16:29:09;7.53;;;6.80;;
74616;SDS011;63123;50.906;4.198;2022-12-18T16:31:35;7.03;;;6.43;;
74616;SDS011;63123;50.906;4.198;2022-12-18T16:36:39;7.22;;;6.63;;
74616;SDS011;63123;50.906;4.198;2022-12-18T16:39:05;7.40;;;6.70;;
74616;SDS011;63123;50.906;4.198;2022-12-18T16:41:30;7.53;;;6.82;;
74616;SDS011;63123;50.906;4.198;2022-12-18T16:43:57;8.00;;;7.20;;
74616;SDS011;63123;50.906;4.198;2022-12-18T16:46:23;7.57;;;6.85;;
74616;SDS011;63123;50.906;4.198;2022-12-18T16:48:48;8.20;;;7.45;;
74616;SDS011;63123;50.906;4.198;2022-12-18T16:51:14;7.70;;;7.00;;